Time;durP1;ratioP1;P1;durP2;ratioP2;P2;SDS_P1;SDS_P2;PMS_P1;PMS_P2;Temp;Humidity;BMP_temperature;BMP_pressure;BME280_temperature;BME280_humidity;BME280_pressure;Samples;Min_cycle;Max_cycle;Signal;HPM_P1;HPM_P2
2021/11/15 00:00:50;;;;;;;40.65;14.45;;;;;;;-149.78;100.00;50469.50;5071697;28;20098;-62
2021/11/15 00:03:17;;;;;;;34.78;13.07;;;;;;;-149.78;100.00;50463.63;5070255;28;20472;-62
2021/11/15 00:05:43;;;;;;;31.00;13.25;;;;;;;-149.78;100.00;50424.50;5072116;28;20063;-62
2021/11/15 00:08:09;;;;;;;35.45;12.75;;;;;;;-149.78;100.00;50481.22;5065507;28;20488;-62
2021/11/15 00:10:35;;;;;;;42.72;13.10;;;;;;;-149.78;100.00;50471.44;5051518;28;20033;-62
2021/11/15 00:13:02;;;;;;;34.00;12.75;;;;;;;-149.78;100.00;50475.34;5052419;28;20052;-62
2021/11/15 00:15:33;;;;;;;32.97;12.45;;;;;;;-149.78;100.00;50436.25;5053982;28;20047;-62
2021/11/15 00:17:59;;;;;;;35.78;13.43;;;;;;;-149.78;100.00;50471.44;5052329;28;20032;-62
2021/11/15 00:20:26;;;;;;;37.67;13.25;;;;;;;-149.78;100.00;50479.28;5053828;28;20041;-62
2021/11/15 00:22:51;;;;;;;36.10;12.50;;;;;;;-149.78;100.00;50471.44;5055998;28;20028;-62
2021/11/15 00:25:17;;;;;;;33.40;12.77;;;;;;;-149.78;100.00;50491.00;5057006;28;20404;-62
2021/11/15 00:27:42;;;;;;;34.45;11.43;;;;;;;-149.78;100.00;50438.19;5056925;28;20037;-62
2021/11/15 00:30:10;;;;;;;36.38;12.43;;;;;;;-149.78;100.00;50483.19;5057056;28;20396;-62
2021/11/15 00:32:36;;;;;;;34.40;12.00;;;;;;;-149.78;100.00;50463.63;5059913;28;20044;-62
2021/11/15 00:35:03;;;;;;;37.50;12.20;;;;;;;-149.78;100.00;50475.34;5054219;28;20515;-62
2021/11/15 00:37:28;;;;;;;37.30;12.77;;;;;;;-149.78;100.00;50440.16;5071609;28;20029;-62
2021/11/15 00:39:54;;;;;;;36.85;12.77;;;;;;;-149.78;100.00;50467.53;5062945;28;20542;-62
2021/11/15 00:42:20;;;;;;;37.08;13.32;;;;;;;-149.78;100.00;50463.63;5069496;28;20027;-61
2021/11/15 00:44:45;;;;;;;37.85;12.38;;;;;;;-149.78;100.00;50498.81;5068726;28;20028;-62
2021/11/15 00:47:11;;;;;;;39.53;13.82;;;;;;;-149.78;100.00;50475.34;5063387;28;20109;-61
2021/11/15 00:49:37;;;;;;;33.55;13.70;;;;;;;-149.78;100.00;50467.53;5068782;28;20036;-62
2021/11/15 00:52:03;;;;;;;43.65;14.13;;;;;;;-149.78;100.00;50510.56;5065191;28;20064;-62
2021/11/15 00:54:29;;;;;;;48.22;14.63;;;;;;;-149.78;100.00;50479.28;5067436;28;20472;-62
2021/11/15 00:56:55;;;;;;;38.10;14.00;;;;;;;-149.78;100.00;50479.28;5069728;28;20027;-62
2021/11/15 00:59:20;;;;;;;35.92;12.93;;;;;;;-149.78;100.00;50475.34;5067730;28;20480;-62
2021/11/15 01:01:46;;;;;;;37.00;14.10;;;;;;;-149.78;100.00;50463.63;5069761;28;20036;-62
2021/11/15 01:04:12;;;;;;;33.58;13.45;;;;;;;-149.78;100.00;50455.81;5069203;28;20032;-63
2021/11/15 01:06:38;;;;;;;38.72;14.20;;;;;;;-149.78;100.00;50496.88;5054312;28;20037;-62
2021/11/15 01:09:04;;;;;;;35.30;13.05;;;;;;;-149.78;100.00;50438.19;5063891;28;20119;-62
2021/11/15 01:11:30;;;;;;;34.50;13.20;;;;;;;-149.78;100.00;50467.53;5065070;28;20489;-62
2021/11/15 01:13:56;;;;;;;38.72;13.88;;;;;;;-149.78;100.00;50502.75;5060219;28;20553;-62
2021/11/15 01:16:22;;;;;;;34.78;13.63;;;;;;;-149.78;100.00;50447.97;5063873;28;20037;-62
2021/11/15 01:18:50;;;;;;;32.72;13.07;;;;;;;-149.78;100.00;50496.88;5064151;28;20438;-62
2021/11/15 01:21:17;;;;;;;35.17;13.40;;;;;;;-149.78;100.00;50461.66;5063244;28;20082;-62
2021/11/15 01:23:43;;;;;;;36.47;12.77;;;;;;;-149.78;100.00;50475.34;5060755;28;20061;-62
2021/11/15 01:26:10;;;;;;;32.50;13.68;;;;;;;-149.78;100.00;50479.28;5058322;28;20124;-62
2021/11/15 01:28:36;;;;;;;34.97;12.23;;;;;;;-149.78;100.00;50455.81;5052938;28;20060;-62
2021/11/15 01:31:03;;;;;;;36.75;13.68;;;;;;;-149.78;100.00;50475.34;5052965;28;20603;-62
2021/11/15 01:33:29;;;;;;;34.90;13.80;;;;;;;-149.78;100.00;50467.53;5064086;28;20428;-62
2021/11/15 01:35:55;;;;;;;41.65;13.77;;;;;;;-149.78;100.00;50455.81;5072439;28;20033;-62
2021/11/15 01:38:22;;;;;;;31.13;13.02;;;;;;;-149.78;100.00;50502.75;5058033;28;20043;-62
2021/11/15 01:40:48;;;;;;;31.98;12.98;;;;;;;-149.78;100.00;50455.81;5057515;28;20111;-62
2021/11/15 01:43:13;;;;;;;35.63;12.88;;;;;;;-149.78;100.00;50416.69;5059413;28;20140;-62
2021/11/15 01:45:40;;;;;;;34.78;12.77;;;;;;;-149.78;100.00;50473.41;5057324;28;20036;-62
2021/11/15 01:48:08;;;;;;;36.58;13.20;;;;;;;-149.78;100.00;50479.28;5058374;28;20037;-62
2021/11/15 01:50:36;;;;;;;36.42;13.18;;;;;;;-149.78;100.00;50479.28;5072253;28;20388;-62
2021/11/15 01:53:02;;;;;;;44.40;14.52;;;;;;;-149.78;100.00;50475.34;5078864;28;20048;-62
2021/11/15 01:55:30;;;;;;;35.28;13.13;;;;;;;-149.78;100.00;50459.72;5078424;28;20372;-62
2021/11/15 01:57:58;;;;;;;36.17;13.90;;;;;;;-149.78;100.00;50487.09;5057026;28;20036;-62
2021/11/15 02:00:29;;;;;;;31.85;12.90;;;;;;;-149.78;100.00;50463.63;5068796;28;20120;-62
2021/11/15 02:02:56;;;;;;;37.47;13.40;;;;;;;-149.78;100.00;50440.16;5060214;28;20029;-62
2021/11/15 02:05:22;;;;;;;38.90;13.80;;;;;;;-149.78;100.00;50428.41;5068075;28;20161;-62
2021/11/15 02:07:47;;;;;;;37.85;13.85;;;;;;;-149.78;100.00;50510.56;5072262;28;20426;-62
2021/11/15 02:10:13;;;;;;;42.80;13.80;;;;;;;-149.78;100.00;50469.50;5073329;28;20036;-62
2021/11/15 02:12:42;;;;;;;37.17;14.10;;;;;;;-149.78;100.00;50463.63;5076423;28;20029;-62
2021/11/15 02:15:13;;;;;;;36.30;13.93;;;;;;;-149.78;100.00;50479.28;5067595;28;20465;-62
2021/11/15 02:17:41;;;;;;;38.07;14.67;;;;;;;-149.78;100.00;50444.06;5061831;28;20025;-62
2021/11/15 02:20:29;;;;;;;42.72;16.20;;;;;;;-149.78;100.00;50498.81;5074265;28;20496;-62
2021/11/15 02:22:56;;;;;;;43.88;15.88;;;;;;;-149.78;100.00;50463.63;5075583;28;20464;-62
2021/11/15 02:25:25;;;;;;;44.78;16.63;;;;;;;-149.78;100.00;50494.91;5073794;28;20056;-62
2021/11/15 02:27:53;;;;;;;38.88;14.25;;;;;;;-149.78;100.00;50534.03;5066430;28;20025;-62
2021/11/15 02:30:24;;;;;;;46.97;16.65;;;;;;;-149.78;100.00;50475.34;5062288;28;20036;-62
2021/11/15 02:32:51;;;;;;;45.17;17.23;;;;;;;-149.78;100.00;50467.53;5073272;28;20036;-62
2021/11/15 02:35:17;;;;;;;44.53;15.85;;;;;;;-149.78;100.00;50475.34;5073631;28;20029;-62
2021/11/15 02:37:44;;;;;;;44.28;16.65;;;;;;;-149.78;100.00;50467.53;5065577;28;20040;-62
2021/11/15 02:40:12;;;;;;;49.72;16.67;;;;;;;-149.78;100.00;50479.28;5072960;28;20046;-62
2021/11/15 02:42:38;;;;;;;47.80;17.25;;;;;;;-149.78;100.00;50471.44;5062109;28;20028;-61
2021/11/15 02:45:07;;;;;;;48.33;16.65;;;;;;;-149.78;100.00;50479.28;5066025;28;20040;-62
2021/11/15 02:47:34;;;;;;;44.33;17.35;;;;;;;-149.78;100.00;50481.22;5065489;28;20111;-62
2021/11/15 02:50:00;;;;;;;52.58;17.77;;;;;;;-149.78;100.00;50483.19;5068279;28;20021;-62
2021/11/15 02:52:26;;;;;;;52.95;18.45;;;;;;;-149.78;100.00;50491.00;5071516;28;20642;-62
2021/11/15 02:54:52;;;;;;;49.63;17.90;;;;;;;-149.78;100.00;50471.44;5069614;28;20035;-62
2021/11/15 02:57:20;;;;;;;43.72;17.15;;;;;;;-149.78;100.00;50491.00;5068819;28;20112;-62
2021/11/15 02:59:47;;;;;;;55.70;19.95;;;;;;;-149.78;100.00;50483.19;5063521;28;20491;-62
2021/11/15 03:02:14;;;;;;;51.47;18.08;;;;;;;-149.78;100.00;50487.09;5054159;28;20066;-62
2021/11/15 03:04:43;;;;;;;52.88;16.98;;;;;;;-149.78;100.00;50494.91;5054238;28;20041;-62
2021/11/15 03:07:08;;;;;;;51.70;19.50;;;;;;;-149.78;100.00;50467.53;5068067;28;20139;-62
2021/11/15 03:09:34;;;;;;;54.65;18.40;;;;;;;-149.78;100.00;50498.81;5066109;28;20516;-62
2021/11/15 03:12:00;;;;;;;50.70;17.95;;;;;;;-149.78;100.00;50467.53;5058193;28;20507;-62
2021/11/15 03:14:25;;;;;;;51.92;18.75;;;;;;;-149.78;100.00;50444.06;5058921;28;20068;-62
2021/11/15 03:16:51;;;;;;;52.67;18.17;;;;;;;-149.78;100.00;50471.44;5062752;28;20028;-62
2021/11/15 03:19:16;;;;;;;51.67;18.20;;;;;;;-149.78;100.00;50473.41;5062286;28;20450;-62
2021/11/15 03:21:42;;;;;;;53.80;17.77;;;;;;;-149.78;100.00;50504.69;5054553;28;20108;-62
2021/11/15 03:24:08;;;;;;;54.45;18.63;;;;;;;-149.78;100.00;50471.44;5067742;28;20033;-62
2021/11/15 03:26:33;;;;;;;53.88;18.63;;;;;;;-149.78;100.00;50463.63;5065497;28;20112;-62
2021/11/15 03:29:00;;;;;;;56.47;17.95;;;;;;;-149.78;100.00;50498.81;5060929;28;20131;-61
2021/11/15 03:31:28;;;;;;;54.97;19.13;;;;;;;-149.78;100.00;50489.03;5068379;28;20049;-62
2021/11/15 03:34:05;;;;;;;45.33;17.35;;;;;;;-149.78;100.00;50473.41;5057863;28;20431;-62
2021/11/15 03:36:31;;;;;;;51.08;18.25;;;;;;;-149.78;100.00;50496.88;5065435;28;20036;-62
2021/11/15 03:38:57;;;;;;;57.20;17.33;;;;;;;-149.78;100.00;50494.91;5061241;28;20435;-62
2021/11/15 03:41:25;;;;;;;49.65;17.67;;;;;;;-149.78;100.00;50432.31;5055505;28;20366;-62
2021/11/15 03:43:52;;;;;;;53.28;18.00;;;;;;;-149.78;100.00;50485.13;5060486;28;20479;-62
2021/11/15 03:46:20;;;;;;;51.38;16.98;;;;;;;-149.78;100.00;50483.19;5069534;28;20032;-62
2021/11/15 03:48:46;;;;;;;50.97;16.92;;;;;;;-149.78;100.00;50494.91;5064268;28;20039;-62
2021/11/15 03:51:12;;;;;;;49.72;16.73;;;;;;;-149.78;100.00;50518.38;5065721;28;20482;-62
2021/11/15 03:53:41;;;;;;;48.63;16.80;;;;;;;-149.78;100.00;50506.66;5073026;28;20033;-62
2021/11/15 03:56:11;;;;;;;47.95;16.30;;;;;;;-149.78;100.00;50494.91;5062237;28;20032;-62
2021/11/15 03:58:39;;;;;;;47.90;16.17;;;;;;;-149.78;100.00;50455.81;5067757;28;20564;-62
2021/11/15 04:01:05;;;;;;;50.63;16.30;;;;;;;-149.78;100.00;50471.44;5060306;28;20040;-62
2021/11/15 04:03:33;;;;;;;45.75;15.73;;;;;;;-149.78;100.00;50506.66;5054028;28;20033;-62
2021/11/15 04:06:08;;;;;;;50.63;15.65;;;;;;;-149.78;100.00;50459.72;5055594;28;20476;-62
2021/11/15 04:08:34;;;;;;;51.53;18.23;;;;;;;-149.78;100.00;50467.53;5054824;28;20082;-62
2021/11/15 04:11:02;;;;;;;44.58;14.90;;;;;;;-149.78;100.00;50469.50;5055032;28;20044;-62
2021/11/15 04:13:41;;;;;;;47.03;16.67;;;;;;;-149.78;100.00;50518.38;5055863;28;20028;-62
2021/11/15 04:16:10;;;;;;;44.83;15.23;;;;;;;-149.78;100.00;50485.13;5063588;28;20037;-62
2021/11/15 04:18:40;;;;;;;44.00;15.63;;;;;;;-149.78;100.00;50483.19;5055184;28;20032;-62
2021/11/15 04:21:07;;;;;;;47.53;17.08;;;;;;;-149.78;100.00;50489.03;5053736;28;20025;-62
2021/11/15 04:23:33;;;;;;;47.80;15.27;;;;;;;-149.78;100.00;50481.22;5055635;28;20036;-62
2021/11/15 04:25:58;;;;;;;47.20;15.43;;;;;;;-149.78;100.00;50494.91;5055106;28;20047;-62
2021/11/15 04:28:24;;;;;;;48.38;16.80;;;;;;;-149.78;100.00;50455.81;5056470;28;20037;-62
2021/11/15 04:30:50;;;;;;;52.95;16.80;;;;;;;-149.78;100.00;50494.91;5061490;28;20032;-62
2021/11/15 04:33:16;;;;;;;54.53;17.80;;;;;;;-149.78;100.00;50489.03;5066555;28;20037;-62
2021/11/15 04:35:42;;;;;;;47.55;16.88;;;;;;;-149.78;100.00;50469.50;5062651;28;20059;-62
2021/11/15 04:38:08;;;;;;;46.92;15.90;;;;;;;-149.78;100.00;50485.13;5064620;28;20104;-62
2021/11/15 04:40:35;;;;;;;46.80;16.33;;;;;;;-149.78;100.00;50492.97;5064982;28;20032;-62
2021/11/15 04:43:02;;;;;;;50.60;16.42;;;;;;;-149.78;100.00;50483.19;5050602;28;20091;-62
2021/11/15 04:45:28;;;;;;;46.78;16.70;;;;;;;-149.78;100.00;50498.81;5051625;28;20473;-62
2021/11/15 04:47:54;;;;;;;47.97;16.90;;;;;;;-149.78;100.00;50479.28;5052603;28;20485;-62
2021/11/15 04:50:20;;;;;;;45.72;15.98;;;;;;;-149.78;100.00;50512.50;5053458;28;20039;-62
2021/11/15 04:52:46;;;;;;;51.35;16.50;;;;;;;-149.78;100.00;50471.44;5053750;28;20033;-62
2021/11/15 04:55:14;;;;;;;47.72;16.42;;;;;;;-149.78;100.00;50467.53;5069218;28;20055;-62
2021/11/15 04:57:40;;;;;;;49.88;16.10;;;;;;;-149.78;100.00;50483.19;5066712;28;20391;-62
2021/11/15 05:00:19;;;;;;;45.35;15.70;;;;;;;-149.78;100.00;50487.09;5065357;28;20060;-62
2021/11/15 05:02:49;;;;;;;45.95;16.23;;;;;;;-149.78;100.00;50471.44;5065319;28;20499;-62
2021/11/15 05:05:16;;;;;;;46.58;14.38;;;;;;;-149.78;100.00;50504.69;5060131;28;20044;-62
2021/11/15 05:07:41;;;;;;;45.33;13.68;;;;;;;-149.78;100.00;50494.91;5070255;28;20446;-62
2021/11/15 05:10:08;;;;;;;50.97;14.45;;;;;;;-149.78;100.00;50491.00;5064900;28;20059;-62
2021/11/15 05:12:37;;;;;;;37.72;13.98;;;;;;;-149.78;100.00;50518.38;5062291;28;20025;-62
2021/11/15 05:15:06;;;;;;;42.25;13.73;;;;;;;-149.78;100.00;50491.00;5066713;28;20037;-63
2021/11/15 05:17:31;;;;;;;36.38;10.80;;;;;;;-149.78;100.00;50491.00;5069909;28;20086;-62
2021/11/15 05:19:57;;;;;;;32.10;10.75;;;;;;;-149.78;100.00;50506.66;5055498;28;20041;-62
2021/11/15 05:22:23;;;;;;;32.05;10.45;;;;;;;-149.78;100.00;50479.28;5064587;28;20024;-62
2021/11/15 05:24:48;;;;;;;33.45;11.40;;;;;;;-149.78;100.00;50504.69;5066267;28;20037;-62
2021/11/15 05:27:14;;;;;;;34.25;11.43;;;;;;;-149.78;100.00;50494.91;5068051;28;20041;-62
2021/11/15 05:29:40;;;;;;;33.72;11.95;;;;;;;-149.78;100.00;50487.09;5065543;28;20025;-62
2021/11/15 05:32:06;;;;;;;40.00;12.32;;;;;;;-149.78;100.00;50510.56;5064077;28;20532;-62
2021/11/15 05:34:33;;;;;;;34.47;10.70;;;;;;;-149.78;100.00;50522.28;5060133;28;20044;-62
2021/11/15 05:36:59;;;;;;;39.25;12.13;;;;;;;-149.78;100.00;50475.34;5060253;28;20033;-62
2021/11/15 05:39:26;;;;;;;35.55;11.93;;;;;;;-149.78;100.00;50518.38;5056215;28;20384;-62
2021/11/15 05:41:51;;;;;;;36.33;11.93;;;;;;;-149.78;100.00;50494.91;5062640;28;20037;-62
2021/11/15 05:44:17;;;;;;;36.92;12.52;;;;;;;-149.78;100.00;50494.91;5056724;28;20032;-62
2021/11/15 05:46:43;;;;;;;39.40;12.02;;;;;;;-149.78;100.00;50522.28;5075695;28;20033;-62
2021/11/15 05:49:08;;;;;;;40.05;13.05;;;;;;;-149.78;100.00;50516.44;5060884;28;20488;-62
2021/11/15 05:51:34;;;;;;;38.17;12.57;;;;;;;-149.78;100.00;50471.44;5062780;28;20044;-62
2021/11/15 05:54:00;;;;;;;40.13;11.88;;;;;;;-149.78;100.00;50500.78;5059952;28;20496;-62
2021/11/15 05:56:25;;;;;;;41.95;12.82;;;;;;;-149.78;100.00;50492.97;5063627;28;20052;-62
2021/11/15 05:58:52;;;;;;;37.17;11.85;;;;;;;-149.78;100.00;50494.91;5059401;28;20029;-62
2021/11/15 06:01:17;;;;;;;39.67;11.60;;;;;;;-149.78;100.00;50502.75;5068774;28;20384;-62
2021/11/15 06:03:44;;;;;;;37.83;11.40;;;;;;;-149.78;100.00;50496.88;5071018;28;20431;-62
2021/11/15 06:06:09;;;;;;;37.90;13.13;;;;;;;-149.78;100.00;50502.75;5068127;28;20037;-62
2021/11/15 06:08:35;;;;;;;42.13;12.98;;;;;;;-149.78;100.00;50483.19;5063737;28;20036;-62
2021/11/15 06:11:01;;;;;;;42.13;12.98;;;;;;;-149.78;100.00;50471.44;5064120;28;20143;-62
2021/11/15 06:13:27;;;;;;;38.70;12.05;;;;;;;-149.78;100.00;50502.75;5063605;28;20469;-62
2021/11/15 06:15:52;;;;;;;40.83;12.85;;;;;;;-149.78;100.00;50491.00;5061424;28;20051;-62
2021/11/15 06:18:18;;;;;;;40.88;12.43;;;;;;;-149.78;100.00;50502.75;5053309;28;20102;-62
2021/11/15 06:20:44;;;;;;;40.13;12.15;;;;;;;-149.78;100.00;50514.47;5060748;28;20029;-62
2021/11/15 06:23:10;;;;;;;43.45;13.00;;;;;;;-149.78;100.00;50494.91;5059051;28;20388;-62
2021/11/15 06:25:36;;;;;;;41.15;13.02;;;;;;;-149.78;100.00;50491.00;5070083;28;20050;-62
2021/11/15 06:28:04;;;;;;;48.63;14.57;;;;;;;-149.78;100.00;50487.09;5071192;28;20511;-62
2021/11/15 06:30:30;;;;;;;44.65;13.88;;;;;;;-149.78;100.00;50483.19;5069496;28;20033;-62
2021/11/15 06:32:55;;;;;;;45.15;13.25;;;;;;;-149.78;100.00;50492.97;5070528;28;20068;-62
2021/11/15 06:35:21;;;;;;;43.45;13.95;;;;;;;-149.78;100.00;50516.44;5059328;28;20063;-62
2021/11/15 06:37:47;;;;;;;45.47;13.75;;;;;;;-149.78;100.00;50487.09;5070262;28;20077;-62
2021/11/15 06:40:14;;;;;;;44.28;14.18;;;;;;;-149.78;100.00;50494.91;5062456;28;20028;-62
2021/11/15 06:42:40;;;;;;;41.42;12.98;;;;;;;-149.78;100.00;50483.19;5066629;28;20116;-62
2021/11/15 06:45:07;;;;;;;43.83;13.85;;;;;;;-149.78;100.00;50491.00;5067780;28;20029;-62
2021/11/15 06:47:35;;;;;;;44.58;14.25;;;;;;;-149.78;100.00;50469.50;5069489;28;20067;-62
2021/11/15 06:50:04;;;;;;;49.53;14.30;;;;;;;-149.78;100.00;50541.84;5074934;28;20060;-62
2021/11/15 06:52:30;;;;;;;41.92;13.43;;;;;;;-149.78;100.00;50492.97;5072508;28;20112;-62
2021/11/15 06:54:56;;;;;;;43.85;13.65;;;;;;;-149.78;100.00;50491.00;5073205;28;20123;-62
2021/11/15 06:57:22;;;;;;;44.13;14.18;;;;;;;-149.78;100.00;50487.09;5074152;28;20051;-62
2021/11/15 06:59:47;;;;;;;39.63;13.43;;;;;;;-149.78;100.00;50510.56;5059561;28;20376;-62
2021/11/15 07:02:13;;;;;;;45.22;13.60;;;;;;;-149.78;100.00;50489.03;5073115;28;20028;-62
2021/11/15 07:04:39;;;;;;;48.78;14.02;;;;;;;-149.78;100.00;50502.75;5067823;28;20112;-62
2021/11/15 07:07:05;;;;;;;39.58;14.20;;;;;;;-149.78;100.00;50506.66;5071469;28;20033;-62
2021/11/15 07:09:31;;;;;;;43.08;14.05;;;;;;;-149.78;100.00;50512.50;5068727;28;20044;-62
2021/11/15 07:11:57;;;;;;;41.95;13.57;;;;;;;-149.78;100.00;50479.28;5069144;28;20041;-63
2021/11/15 07:14:23;;;;;;;45.97;15.05;;;;;;;-149.78;100.00;50530.13;5070485;28;20039;-62
2021/11/15 07:16:50;;;;;;;45.80;14.93;;;;;;;-149.78;100.00;50506.66;5067154;28;20036;-62
2021/11/15 07:19:15;;;;;;;47.85;14.20;;;;;;;-149.78;100.00;50498.81;5070877;28;20032;-66
2021/11/15 07:21:41;;;;;;;48.92;14.18;;;;;;;-149.78;100.00;50541.84;5066677;28;20035;-65
2021/11/15 07:24:07;;;;;;;48.47;14.95;;;;;;;-149.78;100.00;50506.66;5054173;28;20060;-65
2021/11/15 07:26:33;;;;;;;45.22;14.25;;;;;;;-149.78;100.00;50475.34;5062133;28;20507;-66
2021/11/15 07:28:59;;;;;;;45.00;13.85;;;;;;;-149.78;100.00;50465.56;5068065;28;20089;-65
2021/11/15 07:31:25;;;;;;;43.28;13.45;;;;;;;-149.78;100.00;50473.41;5071171;28;20093;-65
2021/11/15 07:33:51;;;;;;;52.22;14.27;;;;;;;-149.78;100.00;50512.50;5067869;28;20177;-66
2021/11/15 07:36:17;;;;;;;45.28;14.07;;;;;;;-149.78;100.00;50475.34;5066041;28;20111;-66
2021/11/15 07:38:43;;;;;;;39.30;13.43;;;;;;;-149.78;100.00;50530.13;5066034;28;20124;-66
2021/11/15 07:41:08;;;;;;;46.08;14.57;;;;;;;-149.78;100.00;50463.63;5068331;28;20079;-66
2021/11/15 07:43:34;;;;;;;48.22;16.60;;;;;;;-149.78;100.00;50498.81;5069696;28;20031;-66
2021/11/15 07:46:00;;;;;;;42.55;15.02;;;;;;;-149.78;100.00;50510.56;5070332;28;20037;-65
2021/11/15 07:48:28;;;;;;;44.03;14.50;;;;;;;-149.78;100.00;50500.78;5069132;28;20365;-65
2021/11/15 07:50:55;;;;;;;43.05;15.00;;;;;;;-149.78;100.00;50494.91;5070482;28;20044;-65
2021/11/15 07:53:21;;;;;;;44.47;13.23;;;;;;;-149.78;100.00;50498.81;5071703;28;20059;-66
2021/11/15 07:55:46;;;;;;;44.70;13.32;;;;;;;-149.78;100.00;50494.91;5070626;28;20460;-66
2021/11/15 07:58:14;;;;;;;41.92;14.10;;;;;;;-149.78;100.00;50496.88;5068605;28;20037;-66
2021/11/15 08:00:40;;;;;;;39.70;12.50;;;;;;;-149.78;100.00;50479.28;5071525;28;20465;-66
2021/11/15 08:03:06;;;;;;;48.97;14.52;;;;;;;-149.78;100.00;50483.19;5068251;28;20039;-65
2021/11/15 08:05:32;;;;;;;37.15;12.88;;;;;;;-149.78;100.00;50475.34;5068365;28;20529;-65
2021/11/15 08:07:58;;;;;;;46.53;14.23;;;;;;;-149.78;100.00;50487.09;5070393;28;20060;-66
2021/11/15 08:10:24;;;;;;;38.22;12.70;;;;;;;-149.78;100.00;50455.81;5067852;28;20387;-66
2021/11/15 08:12:53;;;;;;;37.25;13.05;;;;;;;-149.78;100.00;50487.09;5069923;28;20032;-65
2021/11/15 08:15:21;;;;;;;37.53;13.27;;;;;;;-149.78;100.00;50498.81;5061681;28;20042;-66
2021/11/15 08:17:49;;;;;;;39.45;12.38;;;;;;;-149.78;100.00;50492.97;5063341;28;20388;-65
2021/11/15 08:20:21;;;;;;;36.15;12.18;;;;;;;-149.78;100.00;50494.91;5070682;28;20036;-65
2021/11/15 08:22:51;;;;;;;32.13;11.15;;;;;;;-149.78;100.00;50506.66;5070015;28;20483;-65
2021/11/15 08:25:26;;;;;;;35.13;12.27;;;;;;;-149.78;100.00;50494.91;5065938;28;20484;-66
2021/11/15 08:27:56;;;;;;;34.25;11.80;;;;;;;-149.78;100.00;50463.63;5065616;28;20028;-66
2021/11/15 08:30:22;;;;;;;34.03;10.38;;;;;;;-149.78;100.00;50510.56;5069303;28;20036;-66
2021/11/15 08:32:48;;;;;;;28.23;10.65;;;;;;;-149.78;100.00;50485.13;5060965;28;20037;-65
2021/11/15 08:35:14;;;;;;;27.50;9.68;;;;;;;-149.78;100.00;50471.44;5053663;28;20032;-65
2021/11/15 08:38:06;;;;;;;35.00;10.48;;;;;;;-149.78;100.00;50459.72;5059435;28;20059;-65
2021/11/15 08:40:31;;;;;;;27.70;10.25;;;;;;;-149.78;100.00;50483.19;5052762;28;20031;-65
2021/11/15 08:42:57;;;;;;;22.77;9.25;;;;;;;-149.78;100.00;50504.69;5052139;28;20028;-65
2021/11/15 08:45:22;;;;;;;29.25;9.93;;;;;;;-149.78;100.00;50467.53;5063878;28;20025;-65
2021/11/15 08:47:48;;;;;;;32.97;9.85;;;;;;;-149.78;100.00;50483.19;5057125;28;20172;-65
2021/11/15 08:50:13;;;;;;;31.88;10.70;;;;;;;-149.78;100.00;50510.56;5072869;28;20036;-65
2021/11/15 08:52:39;;;;;;;27.77;9.50;;;;;;;-149.78;100.00;50471.44;5069545;28;20041;-65
2021/11/15 08:55:05;;;;;;;25.58;9.25;;;;;;;-149.78;100.00;50494.91;5071334;28;20041;-65
2021/11/15 08:57:31;;;;;;;26.52;9.20;;;;;;;-149.78;100.00;50479.28;5069484;28;20543;-65
2021/11/15 08:59:58;;;;;;;26.90;9.05;;;;;;;-149.78;100.00;50451.88;5072595;28;20124;-65
2021/11/15 09:02:23;;;;;;;26.75;10.23;;;;;;;-149.78;100.00;50473.41;5060001;28;20432;-66
2021/11/15 09:04:49;;;;;;;31.48;10.02;;;;;;;-149.78;100.00;50483.19;5068529;28;20090;-65
2021/11/15 09:07:14;;;;;;;29.10;9.70;;;;;;;-149.78;100.00;50487.09;5061006;28;20051;-65
2021/11/15 09:09:40;;;;;;;28.65;10.48;;;;;;;-149.78;100.00;50491.00;5051715;28;20125;-65
2021/11/15 09:12:09;;;;;;;30.00;10.57;;;;;;;-149.78;100.00;50479.28;5057472;28;20033;-66
2021/11/15 09:14:36;;;;;;;27.70;9.48;;;;;;;-149.78;100.00;50502.75;5058208;28;20033;-65
2021/11/15 09:17:03;;;;;;;28.80;10.07;;;;;;;-149.78;100.00;50498.81;5066545;28;20086;-65
2021/11/15 09:19:29;;;;;;;27.35;10.63;;;;;;;-149.78;100.00;50471.44;5069368;28;20035;-65
2021/11/15 09:21:56;;;;;;;28.83;9.88;;;;;;;-149.78;100.00;50467.53;5053541;28;20025;-65
2021/11/15 09:24:23;;;;;;;29.25;10.35;;;;;;;-149.78;100.00;50487.09;5058907;28;20037;-65
2021/11/15 09:26:49;;;;;;;28.42;10.27;;;;;;;-149.78;100.00;50508.59;5053914;28;20385;-66
2021/11/15 09:29:17;;;;;;;30.60;10.55;;;;;;;-149.78;100.00;50526.22;5051903;28;20033;-65
2021/11/15 09:31:43;;;;;;;29.65;10.25;;;;;;;-149.78;100.00;50494.91;5066911;28;20055;-66
2021/11/15 09:34:09;;;;;;;35.63;10.07;;;;;;;-149.78;100.00;50487.09;5056764;28;20029;-65
2021/11/15 09:36:35;;;;;;;30.10;10.32;;;;;;;-149.78;100.00;50471.44;5063174;28;20486;-65
2021/11/15 09:39:02;;;;;;;30.40;9.60;;;;;;;-149.78;100.00;50479.28;5054910;28;20117;-65
2021/11/15 09:41:31;;;;;;;25.98;9.80;;;;;;;-149.78;100.00;50475.34;5055888;28;20024;-65
2021/11/15 09:43:57;;;;;;;25.58;9.60;;;;;;;-149.78;100.00;50451.88;5058606;28;20571;-65
2021/11/15 09:46:26;;;;;;;26.70;9.95;;;;;;;-149.78;100.00;50471.44;5058682;28;20112;-65
2021/11/15 09:48:59;;;;;;;33.10;10.82;;;;;;;-149.78;100.00;50410.81;5062651;28;20070;-65
2021/11/15 09:51:25;;;;;;;31.20;9.85;;;;;;;-149.78;100.00;50479.28;5070718;28;20373;-65
2021/11/15 09:53:52;;;;;;;35.28;11.70;;;;;;;-149.78;100.00;50475.34;5058929;28;20401;-65
2021/11/15 09:56:20;;;;;;;31.52;9.95;;;;;;;-149.78;100.00;50494.91;5058461;28;20115;-65
2021/11/15 09:58:46;;;;;;;32.67;10.82;;;;;;;-149.78;100.00;50475.34;5076237;28;20040;-65
2021/11/15 10:01:12;;;;;;;31.85;11.32;;;;;;;-149.78;100.00;50483.19;5073405;28;20133;-65
2021/11/15 10:03:38;;;;;;;35.35;11.82;;;;;;;-149.78;100.00;50479.28;5065386;28;20648;-65
2021/11/15 10:06:04;;;;;;;36.92;12.23;;;;;;;-149.78;100.00;50459.72;5067548;28;20037;-65
2021/11/15 10:08:51;;;;;;;33.05;11.52;;;;;;;-149.78;100.00;50434.28;5068427;28;20041;-65
2021/11/15 10:11:22;;;;;;;32.42;11.77;;;;;;;-149.78;100.00;50440.16;5067046;28;20039;-65
2021/11/15 10:13:49;;;;;;;31.83;10.65;;;;;;;-149.78;100.00;50451.88;5072553;28;20487;-65
2021/11/15 10:16:23;;;;;;;36.92;12.30;;;;;;;-149.78;100.00;50453.84;5069770;28;20044;-65
2021/11/15 10:18:57;;;;;;;38.63;11.40;;;;;;;-149.78;100.00;50463.63;5071985;28;20024;-65
2021/11/15 10:21:58;;;;;;;32.65;12.25;;;;;;;-149.78;100.00;50451.88;5069773;28;20025;-65
2021/11/15 10:24:36;;;;;;;35.10;12.07;;;;;;;-149.78;100.00;50459.72;5069641;28;20037;-65
2021/11/15 10:27:06;;;;;;;31.13;11.55;;;;;;;-149.78;100.00;50451.88;5065469;28;20280;-65
2021/11/15 10:29:36;;;;;;;32.47;11.40;;;;;;;-149.78;100.00;50428.41;5063158;28;20025;-65
2021/11/15 10:32:11;;;;;;;35.65;12.25;;;;;;;-149.78;100.00;50451.88;5066098;28;20046;-65
2021/11/15 10:34:54;;;;;;;36.20;11.90;;;;;;;-149.78;100.00;50436.25;5064279;28;20403;-65
2021/11/15 10:37:27;;;;;;;36.45;12.45;;;;;;;-149.78;100.00;50426.47;5059232;28;20428;-65
2021/11/15 10:40:08;;;;;;;28.58;11.13;;;;;;;-149.78;100.00;50494.91;5063297;28;20056;-65
2021/11/15 10:42:50;;;;;;;29.20;10.88;;;;;;;-149.78;100.00;50459.72;5069863;28;20371;-65
2021/11/15 10:45:21;;;;;;;37.17;12.20;;;;;;;-149.78;100.00;50451.88;5071407;28;20033;-65
2021/11/15 10:47:55;;;;;;;36.22;13.15;;;;;;;-149.78;100.00;50418.63;5068771;28;20029;-65
2021/11/15 10:50:44;;;;;;;35.90;12.25;;;;;;;-149.78;100.00;50459.72;5065023;28;20033;-65
2021/11/15 10:53:24;;;;;;;34.47;12.35;;;;;;;-149.78;100.00;50473.41;5068010;28;20468;-66
2021/11/15 10:56:06;;;;;;;31.60;11.20;;;;;;;-149.78;100.00;50444.06;5072043;28;20031;-65